Skip Navigation Links
NOAA logo - Click to go to the NOAA homepage
NOAA's National Weather Service
Alaska Aviation Weather Unit
  NWS logo - Click to go to the NWS homepage
Left Navbar Graphic     02 AKDT = 10 GMT

   
NOAA is celebrating 200 years of science, service, and stewardship. Visit the NOAA 200th celebration Web site to learn more.
USA.gov is the U.S. Government's official Web portal to all Federal, state and local government Web resources and services.
Facebook
NWS on Facebook

AAWU Home :: Display TAF Add Bookmark
METAR PASX 270416Z AUTO 04004KT 10SM CLR M01/M14 A2960 RMK AO1=

METAR PASX 270436Z AUTO 03003KT 10SM SCT095 M01/M14 A2960 RMK AO1=

METAR PASX 270456Z AUTO 00000KT 10SM FEW095 M02/M15 A2960 RMK AO1=

METAR PASX 270516Z AUTO 00000KT 10SM CLR M03/M15 A2960 RMK AO1=

METAR PASX 270536Z AUTO 00000KT 10SM CLR M05/M16 A2959 RMK AO1=

METAR PASX 270556Z AUTO 27003KT 10SM CLR M06/M16 A2959 RMK AO1 10010
     21060 57003=

METAR PASX 270616Z AUTO 00000KT 10SM CLR M06/M14 A2959 RMK AO1=

METAR PASX 270636Z AUTO 00000KT 10SM CLR M07/M16 A2958 RMK AO1=

METAR PASX 270656Z AUTO 00000KT 10SM CLR M08/M16 A2958 RMK AO1=

METAR PASX 270716Z AUTO 00000KT 10SM CLR M08/M13 A2958 RMK AO1=

METAR PASX 270736Z AUTO 00000KT 10SM CLR M08/M13 A2958 RMK AO1=

METAR PASX 270756Z AUTO 00000KT 10SM CLR M09/M14 A2958 RMK AO1=

METAR PASX 270816Z AUTO 00000KT 10SM CLR M10/M16 A2957 RMK AO1=

METAR PASX 270836Z AUTO 00000KT 10SM CLR M11/M17 A2957 RMK AO1=

METAR PASX 270936Z AUTO 00000KT 10SM CLR M13/M20 A2956 RMK AO1=

METAR PASX 270956Z AUTO 00000KT 10SM CLR M13/M14 A2956 RMK AO1=

METAR PASX 271016Z AUTO 00000KT 10SM CLR M14/M20 A2955 RMK AO1=

METAR PASX 271036Z AUTO 00000KT 10SM CLR M14/M19 A2955 RMK AO1=


NOAA's National Weather Service
Alaska Aviation Weather Unit
6930 Sand Lake Road
Anchorage, AK 99502-1845
Disclaimer
Credits
Glossary
Privacy Policy
About Us
Career Opportunities
Contact AAWU Internet Services Site last modified: April, 17th 2012